Time;durP1;ratioP1;P1;durP2;ratioP2;P2;SDS_P1;SDS_P2;PMS_P1;PMS_P2;Temp;Humidity;BMP_temperature;BMP_pressure;BME280_temperature;BME280_humidity;BME280_pressure;Samples;Min_cycle;Max_cycle;Signal;HPM_P1;HPM_P2
2022/12/12 00:00:29;;;;;;;47.20;20.20;;;;;;;-0.85;88.56;99939.09;5003534;28;20221;-67
2022/12/12 00:02:56;;;;;;;43.47;19.43;;;;;;;-0.86;88.53;99949.41;5006063;28;20201;-70
2022/12/12 00:05:23;;;;;;;42.93;19.40;;;;;;;-0.94;88.59;99943.84;4994110;28;20297;-66
2022/12/12 00:07:49;;;;;;;38.23;19.07;;;;;;;-0.98;88.60;99945.38;4997062;28;20208;-68
2022/12/12 00:10:16;;;;;;;41.63;19.47;;;;;;;-1.10;88.62;99939.56;4997847;28;20229;-67
2022/12/12 00:12:42;;;;;;;43.40;19.07;;;;;;;-1.16;88.78;99934.06;4999399;28;20660;-70
2022/12/12 00:15:09;;;;;;;42.70;18.47;;;;;;;-1.19;89.25;99948.59;5015082;28;20657;-70
2022/12/12 00:17:35;;;;;;;43.50;19.30;;;;;;;-1.27;89.35;99943.84;4999796;28;20316;-66
2022/12/12 00:20:03;;;;;;;37.20;17.77;;;;;;;-1.25;89.79;99946.53;5007122;28;20640;-67
2022/12/12 00:22:30;;;;;;;41.13;18.10;;;;;;;-1.34;90.05;99925.28;5006445;28;20198;-69
2022/12/12 00:24:56;;;;;;;38.57;18.30;;;;;;;-1.16;90.14;99949.63;4998240;28;20201;-68
2022/12/12 00:27:23;;;;;;;39.33;18.07;;;;;;;-1.02;89.59;99937.34;5008786;28;20285;-65
2022/12/12 00:29:53;;;;;;;38.93;17.93;;;;;;;-1.00;89.09;99940.94;5002754;28;20209;-69
2022/12/12 00:32:20;;;;;;;37.03;18.10;;;;;;;-0.89;88.46;99952.75;5003701;28;20615;-67
2022/12/12 00:34:46;;;;;;;38.23;18.83;;;;;;;-0.89;88.45;99955.34;5010301;28;20197;-66
2022/12/12 00:37:12;;;;;;;36.23;18.10;;;;;;;-0.89;88.29;99954.47;5004601;28;20298;-67
2022/12/12 00:39:39;;;;;;;39.17;17.57;;;;;;;-0.94;88.32;99949.03;4995643;28;20337;-66
2022/12/12 00:42:05;;;;;;;40.07;18.50;;;;;;;-0.91;88.58;99956.97;5001511;28;20645;-69
2022/12/12 00:44:31;;;;;;;35.93;16.83;;;;;;;-0.95;88.28;99944.66;5004448;28;20235;-67
2022/12/12 00:46:58;;;;;;;36.47;18.40;;;;;;;-0.94;88.81;99949.03;5000253;28;20219;-70
2022/12/12 00:49:24;;;;;;;35.80;17.07;;;;;;;-0.89;88.67;99944.97;5001283;28;21832;-67
2022/12/12 00:51:51;;;;;;;40.60;18.73;;;;;;;-0.82;88.12;99941.84;5006214;28;20231;-71
2022/12/12 00:54:17;;;;;;;43.53;18.13;;;;;;;-0.64;87.57;99957.50;4997949;28;20704;-67
2022/12/12 00:56:43;;;;;;;41.93;18.43;;;;;;;-0.59;87.32;99950.84;5002672;28;20604;-67
2022/12/12 00:59:10;;;;;;;40.73;17.03;;;;;;;-0.58;87.23;99947.41;5004468;28;20248;-67
2022/12/12 01:01:36;;;;;;;41.80;18.57;;;;;;;-0.60;87.10;99954.25;5010068;28;20248;-69
2022/12/12 01:04:03;;;;;;;41.60;16.97;;;;;;;-0.57;87.21;99958.72;5011315;28;20688;-66
2022/12/12 01:06:30;;;;;;;37.07;17.90;;;;;;;-0.45;86.52;99948.91;5005609;28;20197;-67
2022/12/12 01:08:57;;;;;;;39.20;19.03;;;;;;;-0.35;86.27;99956.38;5008334;28;20190;-70
2022/12/12 01:11:24;;;;;;;38.33;16.97;;;;;;;-0.49;86.36;99939.16;5005472;28;20807;-67
2022/12/12 01:13:52;;;;;;;38.00;16.93;;;;;;;-0.46;86.30;99948.00;5002763;28;20777;-67
2022/12/12 01:16:19;;;;;;;42.97;17.83;;;;;;;-0.27;85.89;99948.94;5012906;28;20688;-67
2022/12/12 01:18:45;;;;;;;41.20;19.30;;;;;;;-0.18;85.42;99957.19;5003189;28;20667;-68
2022/12/12 01:21:14;;;;;;;32.57;17.03;;;;;;;-0.18;85.28;99958.09;5003901;28;20322;-68
2022/12/12 01:23:41;;;;;;;33.13;16.33;;;;;;;-0.19;85.32;99965.81;5014019;28;20222;-68
2022/12/12 01:26:12;;;;;;;35.10;16.20;;;;;;;-0.18;85.24;99965.88;5015118;28;20582;-70
2022/12/12 01:28:38;;;;;;;38.97;18.37;;;;;;;-0.31;85.57;99968.72;5015452;28;20286;-68
2022/12/12 01:31:05;;;;;;;33.63;15.83;;;;;;;-0.36;86.15;99965.88;5018190;28;20247;-67
2022/12/12 01:33:32;;;;;;;38.33;17.70;;;;;;;-0.42;86.38;99973.34;5017913;28;20225;-68
2022/12/12 01:35:58;;;;;;;35.43;17.13;;;;;;;-0.49;86.78;99966.06;5014513;28;20283;-68
2022/12/12 01:38:25;;;;;;;37.47;17.73;;;;;;;-0.51;86.89;99969.41;5004114;28;20320;-71
2022/12/12 01:40:52;;;;;;;37.43;18.00;;;;;;;-0.43;86.98;99973.28;5017352;28;20840;-67
2022/12/12 01:43:21;;;;;;;39.00;17.73;;;;;;;-0.25;86.23;99979.41;5016939;28;20656;-67
2022/12/12 01:45:53;;;;;;;38.37;17.70;;;;;;;-0.30;85.89;99970.50;5018221;28;20197;-67
2022/12/12 01:48:22;;;;;;;39.23;17.90;;;;;;;-0.45;86.10;99952.41;5005995;28;20195;-70
2022/12/12 01:50:49;;;;;;;37.40;18.00;;;;;;;-0.42;86.71;99973.34;4999797;28;20273;-67
2022/12/12 01:53:18;;;;;;;39.27;17.23;;;;;;;-0.46;86.84;99974.03;5002825;28;20298;-68
2022/12/12 01:55:46;;;;;;;38.87;18.83;;;;;;;-0.46;87.11;99973.13;5002639;28;21812;-69
2022/12/12 01:58:14;;;;;;;35.63;16.83;;;;;;;-0.51;87.17;99966.81;5004342;28;20249;-68
2022/12/12 02:00:40;;;;;;;34.83;16.87;;;;;;;-0.49;87.44;99979.06;5005342;28;20416;-71
2022/12/12 02:03:07;;;;;;;37.87;17.10;;;;;;;-0.50;87.43;99979.88;5006939;28;20230;-67
2022/12/12 02:05:38;;;;;;;37.83;17.87;;;;;;;-0.52;87.25;99980.63;5003982;28;20218;-69
2022/12/12 02:08:06;;;;;;;34.07;16.63;;;;;;;-0.49;86.94;99979.06;5001900;28;20201;-70
2022/12/12 02:10:33;;;;;;;41.13;19.60;;;;;;;-0.49;87.41;99978.19;5006026;28;20275;-68
2022/12/12 02:13:08;;;;;;;35.00;18.03;;;;;;;-0.48;87.01;99975.66;5005655;28;20819;-68
2022/12/12 02:15:42;;;;;;;39.23;17.90;;;;;;;-0.44;87.10;99974.09;5001332;28;20305;-69
2022/12/12 02:18:44;;;;;;;37.53;16.40;;;;;;;-0.44;87.10;99977.59;5001078;28;20698;-70
2022/12/12 02:21:43;;;;;;;34.13;17.03;;;;;;;-0.42;87.39;99975.97;5004959;28;20231;-67
2022/12/12 02:24:43;;;;;;;38.53;17.47;;;;;;;-0.47;87.40;99961.84;5001267;28;20286;-68
2022/12/12 02:27:39;;;;;;;32.93;15.97;;;;;;;-0.41;87.75;99969.06;5007493;28;20289;-68
2022/12/12 02:30:42;;;;;;;40.00;17.60;;;;;;;-0.46;87.80;99958.41;5009854;28;20313;-68
2022/12/12 02:33:26;;;;;;;40.80;19.03;;;;;;;-0.37;87.73;99973.63;4986563;28;20246;-70
2022/12/12 02:36:00;;;;;;;39.13;18.53;;;;;;;-0.35;87.73;99978.06;5006343;28;20199;-69
2022/12/12 02:38:32;;;;;;;37.10;16.87;;;;;;;-0.26;86.66;99979.34;5008443;28;20314;-66
2022/12/12 02:41:33;;;;;;;36.13;17.37;;;;;;;-0.13;86.58;99977.41;5007685;28;20252;-66
2022/12/12 02:44:11;;;;;;;39.03;16.83;;;;;;;-0.06;86.00;99982.09;5013584;28;20289;-69
2022/12/12 02:46:56;;;;;;;33.13;16.43;;;;;;;-0.29;86.31;99966.19;5009508;28;20199;-68
2022/12/12 02:49:39;;;;;;;40.43;17.33;;;;;;;-0.27;86.58;99986.25;5005671;28;20196;-67
2022/12/12 02:52:08;;;;;;;35.80;16.77;;;;;;;-0.36;86.89;99978.00;5007910;28;20209;-70
2022/12/12 02:54:35;;;;;;;37.93;16.77;;;;;;;-0.29;86.80;99977.50;4992410;28;20731;-67
2022/12/12 02:57:02;;;;;;;40.37;18.63;;;;;;;-0.35;87.13;99982.38;5003046;28;20285;-68
2022/12/12 02:59:35;;;;;;;38.70;18.67;;;;;;;-0.27;87.27;99981.06;5006987;28;20778;-69
2022/12/12 03:02:23;;;;;;;39.20;18.53;;;;;;;-0.37;87.19;99969.31;5004940;28;20218;-71
2022/12/12 03:08:16;;;;;;;31.63;16.37;;;;;;;-0.46;87.81;99981.81;5001725;28;20641;-68
2022/12/12 03:10:55;;;;;;;37.93;16.07;;;;;;;-0.56;88.03;99963.09;5003852;28;20678;-69
2022/12/12 03:13:27;;;;;;;36.03;17.13;;;;;;;-0.48;88.41;99972.16;5001136;28;20270;-67
2022/12/12 03:16:17;;;;;;;34.77;16.73;;;;;;;-0.32;87.74;99975.63;4999489;28;20206;-68
2022/12/12 03:18:56;;;;;;;35.70;16.83;;;;;;;-0.34;87.60;99976.38;5002549;28;20233;-67
2022/12/12 03:21:36;;;;;;;37.17;18.50;;;;;;;-0.29;87.62;99967.06;4998109;28;20229;-69
2022/12/12 03:24:09;;;;;;;39.70;18.00;;;;;;;-0.36;87.12;99963.28;5002981;28;20518;-67
2022/12/12 03:26:45;;;;;;;36.87;16.40;;;;;;;-0.25;87.35;99981.13;5000115;28;20199;-68
2022/12/12 03:29:16;;;;;;;39.67;17.63;;;;;;;-0.26;86.99;99985.44;5002739;28;21109;-70
2022/12/12 03:31:49;;;;;;;38.07;16.37;;;;;;;-0.26;86.63;99975.03;5003253;28;20402;-68
2022/12/12 03:34:30;;;;;;;35.30;17.17;;;;;;;-0.28;86.89;99981.88;5003469;28;20578;-68
2022/12/12 03:37:08;;;;;;;38.60;16.70;;;;;;;-0.36;87.27;99985.81;5002264;28;20202;-68
2022/12/12 03:39:55;;;;;;;36.80;17.53;;;;;;;-0.33;86.99;99973.84;5001255;28;20303;-68
2022/12/12 03:42:28;;;;;;;36.77;16.73;;;;;;;-0.34;86.89;99969.47;5001527;28;20219;-70
2022/12/12 03:45:08;;;;;;;37.37;17.70;;;;;;;-0.31;86.95;99979.13;5006832;28;20229;-68
2022/12/12 03:47:49;;;;;;;37.43;16.53;;;;;;;-0.21;86.70;99976.16;4993372;28;20737;-66
2022/12/12 03:50:32;;;;;;;37.90;16.70;;;;;;;-0.12;86.45;99975.69;5005948;28;20221;-69
2022/12/12 03:53:06;;;;;;;36.23;15.53;;;;;;;-0.16;86.10;99966.84;5001070;28;20584;-69
2022/12/12 03:55:40;;;;;;;38.40;16.10;;;;;;;-0.27;86.25;99974.97;5000537;28;20684;-67
2022/12/12 03:58:13;;;;;;;38.57;16.67;;;;;;;-0.29;86.70;99979.19;4997053;28;20265;-66
2022/12/12 04:00:42;;;;;;;36.00;17.00;;;;;;;-0.41;86.94;99971.66;5001485;28;20306;-70
2022/12/12 04:03:25;;;;;;;37.50;17.17;;;;;;;-0.42;87.09;99982.88;5001163;28;20209;-66
2022/12/12 04:14:41;;;;;;;37.50;16.90;;;;;;;-0.38;87.54;99987.44;4996374;28;20287;-68
2022/12/12 04:17:11;;;;;;;36.33;17.33;;;;;;;-0.34;87.49;99978.97;4996771;28;20298;-68
2022/12/12 04:26:37;;;;;;;42.87;18.77;;;;;;;-0.28;87.06;99987.06;5000350;28;20216;-68
2022/12/12 04:28:23;;;;;;;39.20;16.20;;;;;;;-0.18;86.55;99994.50;5008253;28;20249;-67
2022/12/12 04:30:50;;;;;;;39.20;16.70;;;;;;;-0.21;86.28;99994.38;5011003;28;20301;-67
2022/12/12 04:33:19;;;;;;;40.57;17.40;;;;;;;-0.18;86.29;99997.13;5009576;28;20287;-67
2022/12/12 04:35:50;;;;;;;43.57;18.03;;;;;;;-0.21;86.50;99985.66;5005798;28;20207;-67
2022/12/12 04:38:20;;;;;;;44.63;16.87;;;;;;;-0.08;85.79;99995.84;5007508;28;20674;-66
2022/12/12 04:40:52;;;;;;;33.93;16.20;;;;;;;-0.09;86.11;100000.16;5006335;28;20705;-67
2022/12/12 04:43:21;;;;;;;35.93;17.40;;;;;;;-0.22;86.21;100004.69;5003879;28;20206;-67
2022/12/12 04:45:54;;;;;;;42.53;17.63;;;;;;;-0.23;86.77;100001.19;4988553;28;20316;-69
2022/12/12 04:48:29;;;;;;;37.93;17.13;;;;;;;-0.22;86.69;100010.78;4998228;28;20389;-67
2022/12/12 04:51:02;;;;;;;35.27;17.53;;;;;;;-0.24;86.55;100006.31;5004944;28;20300;-70
2022/12/12 04:53:39;;;;;;;40.03;18.50;;;;;;;-0.33;86.54;100012.88;5007872;28;20716;-68
2022/12/12 04:56:10;;;;;;;38.47;17.43;;;;;;;-0.40;86.91;100004.66;4996447;28;20216;-66
2022/12/12 04:58:37;;;;;;;39.70;17.20;;;;;;;-0.43;87.21;100010.59;5002231;28;20243;-69
2022/12/12 05:01:33;;;;;;;39.53;18.43;;;;;;;-0.46;87.78;100006.94;4994404;28;20314;-70
2022/12/12 05:04:06;;;;;;;37.97;17.87;;;;;;;-0.47;88.27;100008.66;5002023;28;20210;-67
2022/12/12 05:06:40;;;;;;;45.67;19.33;;;;;;;-0.52;88.21;100014.44;4999582;28;20198;-67
2022/12/12 05:09:07;;;;;;;40.17;18.53;;;;;;;-0.47;88.29;100012.97;5002758;28;20222;-67
2022/12/12 05:11:33;;;;;;;37.43;17.87;;;;;;;-0.47;88.65;100020.75;5002319;28;20247;-69
2022/12/12 05:14:00;;;;;;;45.83;20.23;;;;;;;-0.46;88.62;100026.03;4998017;28;20754;-67
2022/12/12 05:16:31;;;;;;;35.30;17.70;;;;;;;-0.47;88.29;100028.56;4999765;28;20221;-70
2022/12/12 05:18:58;;;;;;;37.17;17.80;;;;;;;-0.45;88.36;100026.94;5005367;28;20219;-68
2022/12/12 05:21:25;;;;;;;36.30;18.17;;;;;;;-0.59;88.54;100000.25;5024845;23;20561;-67
2022/12/12 05:23:51;;;;;;;38.30;18.20;;;;;;;-0.47;88.55;100026.84;5022293;28;20529;-67
2022/12/12 05:26:22;;;;;;;37.27;17.43;;;;;;;-0.42;88.77;100032.28;5028313;28;20289;-66
2022/12/12 05:28:49;;;;;;;37.33;17.00;;;;;;;-0.41;88.91;100034.06;5015919;28;20227;-67
2022/12/12 05:31:16;;;;;;;40.07;18.53;;;;;;;-0.45;88.66;100021.72;5018067;28;20711;-67
2022/12/12 05:33:43;;;;;;;38.43;17.97;;;;;;;-0.37;88.47;100036.06;5012184;28;20672;-67
2022/12/12 05:36:09;;;;;;;40.03;18.87;;;;;;;-0.20;87.34;100032.56;5023998;28;20219;-66
2022/12/12 05:38:36;;;;;;;35.60;17.10;;;;;;;-0.08;85.69;100025.38;5021014;28;20223;-67
2022/12/12 05:41:02;;;;;;;36.60;17.60;;;;;;;-0.11;85.99;100034.72;5022014;28;20787;-67
2022/12/12 05:43:29;;;;;;;35.13;17.70;;;;;;;-0.22;86.30;100039.41;5024907;28;20196;-67
2022/12/12 05:45:56;;;;;;;36.80;17.97;;;;;;;-0.28;86.72;100038.22;5021505;28;20297;-67
2022/12/12 05:48:22;;;;;;;36.27;17.13;;;;;;;-0.35;87.02;100032.72;5027971;28;20210;-67
2022/12/12 05:50:50;;;;;;;33.30;16.93;;;;;;;-0.35;87.30;100032.72;5026234;28;20722;-67
2022/12/12 05:53:17;;;;;;;41.90;17.87;;;;;;;-0.42;87.63;100027.97;5023735;28;20294;-67
2022/12/12 05:55:44;;;;;;;36.33;17.10;;;;;;;-0.42;87.69;100035.78;5020451;28;20226;-67
2022/12/12 05:58:10;;;;;;;36.73;16.77;;;;;;;-0.38;88.03;100040.34;5023593;28;20250;-67
2022/12/12 06:00:37;;;;;;;39.53;17.57;;;;;;;-0.33;87.98;100038.88;5027321;28;20280;-67
2022/12/12 06:03:03;;;;;;;38.23;17.57;;;;;;;-0.37;87.96;100038.66;5018920;28;20307;-67
2022/12/12 06:05:30;;;;;;;34.17;17.50;;;;;;;-0.37;88.15;100051.66;5023648;28;20273;-68
2022/12/12 06:07:56;;;;;;;36.17;17.83;;;;;;;-0.42;88.43;100048.78;5018264;28;20739;-67
2022/12/12 06:10:22;;;;;;;38.97;19.00;;;;;;;-0.37;88.73;100049.94;5023222;28;20200;-68
2022/12/12 06:12:49;;;;;;;38.00;18.97;;;;;;;-0.42;88.72;100048.78;5023822;28;20253;-67
2022/12/12 06:15:15;;;;;;;35.97;18.27;;;;;;;-0.34;88.58;100044.91;5021154;28;20202;-67
2022/12/12 06:17:42;;;;;;;37.83;19.83;;;;;;;-0.27;88.35;100043.50;5022495;28;20261;-66
2022/12/12 06:20:09;;;;;;;37.07;18.57;;;;;;;-0.32;88.24;100044.97;5018766;28;20226;-67
2022/12/12 06:22:35;;;;;;;34.60;17.50;;;;;;;-0.28;88.18;100054.72;5020563;28;20226;-67
2022/12/12 06:25:02;;;;;;;34.17;17.37;;;;;;;-0.27;88.75;100053.91;5026837;28;20281;-67
2022/12/12 06:27:28;;;;;;;35.73;17.83;;;;;;;-0.23;88.56;100054.94;5026008;28;20206;-67
2022/12/12 06:29:55;;;;;;;42.43;18.10;;;;;;;-0.21;88.77;100055.91;5023788;28;20257;-67
2022/12/12 06:32:21;;;;;;;38.83;17.27;;;;;;;-0.24;88.69;100058.38;5022784;28;20703;-67
2022/12/12 06:34:47;;;;;;;37.50;18.70;;;;;;;-0.24;88.82;100058.38;5025845;28;20249;-69
2022/12/12 06:37:13;;;;;;;44.73;18.50;;;;;;;-0.14;88.67;100053.69;5023250;28;20199;-66
2022/12/12 06:39:43;;;;;;;44.30;21.07;;;;;;;-0.02;87.62;100058.59;5023896;28;20250;-66
2022/12/12 06:42:09;;;;;;;41.10;18.67;;;;;;;0.12;86.53;100054.09;5021277;28;20273;-68
2022/12/12 06:44:36;;;;;;;39.23;19.50;;;;;;;0.05;86.37;100058.13;5024412;28;20226;-66
2022/12/12 06:47:02;;;;;;;40.60;17.53;;;;;;;0.13;86.10;100062.00;5021229;28;20202;-68
2022/12/12 06:49:28;;;;;;;39.43;18.67;;;;;;;0.07;86.54;100053.00;5019336;28;20325;-68
2022/12/12 06:51:55;;;;;;;40.07;18.97;;;;;;;0.07;86.50;100064.28;5022404;28;20229;-68
2022/12/12 06:54:22;;;;;;;42.63;18.67;;;;;;;-0.04;86.59;100070.66;5024665;28;20610;-65
2022/12/12 06:56:48;;;;;;;39.13;18.97;;;;;;;-0.10;87.14;100071.25;5024308;28;20609;-65
2022/12/12 06:59:15;;;;;;;38.40;17.70;;;;;;;-0.15;87.39;100077.94;5023403;28;20590;-65
2022/12/12 07:01:42;;;;;;;39.17;18.37;;;;;;;-0.20;87.64;100075.91;5023263;28;20242;-65
2022/12/12 07:04:11;;;;;;;38.67;18.67;;;;;;;-0.28;87.89;100061.63;5024591;28;20644;-66
2022/12/12 07:06:37;;;;;;;42.57;18.30;;;;;;;-0.18;88.00;100079.50;5018735;28;20647;-68
2022/12/12 07:09:03;;;;;;;41.80;18.53;;;;;;;-0.18;88.20;100076.88;5020743;28;20256;-68
2022/12/12 07:11:30;;;;;;;39.73;19.03;;;;;;;-0.23;88.19;100081.84;5013081;28;20306;-68
2022/12/12 07:13:58;;;;;;;41.83;19.17;;;;;;;-0.15;87.90;100080.53;5022718;28;20663;-68
2022/12/12 07:16:24;;;;;;;39.10;18.07;;;;;;;-0.18;88.16;100085.59;5022013;28;20202;-68
2022/12/12 07:18:51;;;;;;;39.07;18.10;;;;;;;-0.19;88.19;100085.50;5026036;28;20260;-69
2022/12/12 07:21:19;;;;;;;36.93;17.47;;;;;;;-0.20;88.52;100084.63;5024044;28;20254;-68
2022/12/12 07:23:46;;;;;;;38.53;18.40;;;;;;;-0.21;88.32;100088.03;5025402;28;20201;-69
2022/12/12 07:26:19;;;;;;;41.83;17.07;;;;;;;-0.21;88.72;100092.34;5025754;28;20213;-69
2022/12/12 07:28:46;;;;;;;40.47;15.10;;;;;;;-0.19;88.53;100098.53;5019824;28;20192;-69
2022/12/12 07:31:15;;;;;;;34.83;16.30;;;;;;;-0.21;88.39;100095.84;5023495;28;20253;-68
2022/12/12 07:33:41;;;;;;;30.77;14.90;;;;;;;-0.21;88.19;100090.63;5018888;28;20656;-68
2022/12/12 07:36:11;;;;;;;34.40;17.07;;;;;;;-0.17;88.21;100084.78;5012059;28;20202;-69
2022/12/12 07:38:38;;;;;;;38.20;16.53;;;;;;;-0.17;87.92;100076.06;5017026;28;20229;-68
2022/12/12 07:41:11;;;;;;;33.30;16.73;;;;;;;-0.05;87.77;100094.91;5022108;28;20238;-69
2022/12/12 07:43:39;;;;;;;31.87;14.90;;;;;;;-0.06;86.99;100090.50;5023731;28;20206;-68
2022/12/12 07:46:13;;;;;;;30.60;14.80;;;;;;;0.05;86.73;100093.69;5017880;28;20210;-69
2022/12/12 07:48:40;;;;;;;38.03;16.33;;;;;;;0.11;86.14;100093.97;5021871;28;20737;-69
2022/12/12 07:51:07;;;;;;;31.13;14.00;;;;;;;0.13;85.27;100095.84;5024475;28;20219;-68
2022/12/12 07:53:33;;;;;;;28.50;13.87;;;;;;;0.18;85.11;100099.56;5016284;28;20218;-69
2022/12/12 07:56:03;;;;;;;36.63;13.83;;;;;;;0.16;85.35;100106.41;5018522;28;20682;-68
2022/12/12 07:58:30;;;;;;;34.30;14.17;;;;;;;0.12;85.51;100100.97;5021246;28;20207;-69
2022/12/12 08:00:56;;;;;;;34.67;14.37;;;;;;;0.24;85.25;100097.25;5022511;28;20305;-69
2022/12/12 08:03:25;;;;;;;35.83;14.27;;;;;;;0.44;83.70;100113.88;5017163;28;20290;-69
2022/12/12 08:05:51;;;;;;;28.43;13.90;;;;;;;0.58;83.05;100117.13;5022238;28;20199;-69
2022/12/12 08:08:17;;;;;;;29.03;13.70;;;;;;;0.63;82.57;100121.75;5020996;28;20406;-69
2022/12/12 08:10:44;;;;;;;31.97;14.47;;;;;;;0.60;81.96;100118.09;5023670;28;20229;-68
2022/12/12 08:13:10;;;;;;;31.03;13.17;;;;;;;0.67;82.18;100124.50;5020524;28;20280;-69
2022/12/12 08:15:37;;;;;;;29.93;13.30;;;;;;;0.63;82.11;100115.66;5023698;28;20583;-69
2022/12/12 08:18:03;;;;;;;31.37;13.87;;;;;;;0.59;81.82;100134.56;5025571;28;20195;-69
2022/12/12 08:20:30;;;;;;;28.90;14.07;;;;;;;0.59;82.27;100129.34;5016270;28;20730;-68
2022/12/12 08:22:57;;;;;;;29.67;14.57;;;;;;;0.56;82.60;100126.59;5018378;28;20613;-68
2022/12/12 08:25:23;;;;;;;30.77;15.57;;;;;;;0.66;82.60;100126.22;5019736;28;20286;-69
2022/12/12 08:27:50;;;;;;;30.47;14.10;;;;;;;0.57;82.59;100129.28;5020512;28;20198;-67
2022/12/12 08:30:16;;;;;;;32.00;15.13;;;;;;;0.75;82.15;100138.78;5023634;28;20199;-64
2022/12/12 08:32:43;;;;;;;34.80;14.70;;;;;;;0.72;82.12;100130.81;5025981;28;20207;-67
2022/12/12 08:35:09;;;;;;;34.20;15.50;;;;;;;0.77;82.25;100131.94;5026346;28;20705;-67
2022/12/12 08:37:36;;;;;;;28.97;14.40;;;;;;;0.69;82.47;100131.56;5025128;28;20659;-66
2022/12/12 08:40:02;;;;;;;35.97;15.10;;;;;;;0.74;82.82;100134.41;5022512;28;20218;-67
2022/12/12 08:42:29;;;;;;;40.20;16.80;;;;;;;0.87;82.49;100139.41;5023901;28;20245;-66
2022/12/12 08:44:55;;;;;;;32.30;15.73;;;;;;;0.99;81.99;100139.97;5022837;28;20258;-66
2022/12/12 08:47:22;;;;;;;38.13;16.17;;;;;;;1.10;81.37;100150.88;5020294;28;20285;-68
2022/12/12 08:49:49;;;;;;;33.83;15.40;;;;;;;1.15;80.95;100144.19;5021714;28;20334;-67
2022/12/12 08:52:15;;;;;;;29.83;13.83;;;;;;;1.07;80.34;100138.59;5020192;28;20319;-67
2022/12/12 08:54:41;;;;;;;30.07;13.33;;;;;;;1.20;80.82;100145.28;5022260;28;20199;-67
2022/12/12 08:57:07;;;;;;;23.03;11.47;;;;;;;1.22;77.87;100147.16;5020448;28;20203;-67
2022/12/12 08:59:34;;;;;;;24.93;12.30;;;;;;;1.11;78.43;100148.34;5025785;28;20823;-68
2022/12/12 09:02:00;;;;;;;29.53;13.00;;;;;;;1.15;79.06;100152.88;5021317;28;20247;-67
2022/12/12 09:04:27;;;;;;;22.70;12.20;;;;;;;1.16;77.51;100153.78;5027361;28;20219;-67
2022/12/12 09:06:53;;;;;;;27.07;11.70;;;;;;;1.23;77.73;100159.38;5015024;28;20265;-67
2022/12/12 09:09:20;;;;;;;26.10;12.57;;;;;;;1.31;77.73;100156.22;5023011;28;20282;-66
2022/12/12 09:11:46;;;;;;;28.33;12.17;;;;;;;1.28;78.44;100148.28;4978517;28;20222;-68
2022/12/12 09:14:13;;;;;;;24.40;12.47;;;;;;;1.38;76.83;100155.69;5032618;28;20253;-68
2022/12/12 09:16:39;;;;;;;27.37;13.27;;;;;;;1.44;77.20;100153.34;5019649;28;20200;-68
2022/12/12 09:19:05;;;;;;;27.50;12.73;;;;;;;1.43;77.23;100165.50;5022801;28;20647;-67
2022/12/12 09:21:32;;;;;;;26.53;12.93;;;;;;;1.33;77.56;100158.09;5025970;28;20441;-67
2022/12/12 09:23:58;;;;;;;24.70;12.50;;;;;;;1.48;77.00;100168.31;5020693;28;20203;-66
2022/12/12 09:26:24;;;;;;;27.03;13.40;;;;;;;1.49;77.79;100176.22;5025753;28;20203;-67
2022/12/12 09:28:51;;;;;;;27.57;13.53;;;;;;;1.61;78.22;100169.78;5030272;28;20613;-68
2022/12/12 09:31:17;;;;;;;23.93;12.37;;;;;;;1.68;77.93;100177.97;5023376;28;20602;-67
2022/12/12 09:33:44;;;;;;;24.40;12.53;;;;;;;1.78;77.13;100167.09;5024985;28;20195;-68
2022/12/12 09:36:11;;;;;;;24.73;12.57;;;;;;;1.79;76.80;100184.56;5024601;28;20208;-68
2022/12/12 09:38:37;;;;;;;25.93;12.10;;;;;;;1.92;75.64;100185.09;5020831;28;20197;-67
2022/12/12 09:41:23;;;;;;;24.53;12.90;;;;;;;2.12;73.92;100189.50;5026279;28;20309;-67
2022/12/12 09:44:05;;;;;;;23.60;12.33;;;;;;;2.01;73.79;100189.03;5027120;28;20203;-66
2022/12/12 09:46:33;;;;;;;23.80;11.63;;;;;;;1.96;75.13;100187.00;5025673;28;20676;-67
2022/12/12 09:49:15;;;;;;;24.00;11.60;;;;;;;1.93;75.36;100185.16;5022198;28;20202;-67
2022/12/12 09:51:47;;;;;;;22.80;11.43;;;;;;;2.13;73.85;100186.03;5018023;28;20289;-67
2022/12/12 09:54:16;;;;;;;18.73;10.50;;;;;;;1.78;73.27;100169.72;5028854;28;20658;-68
2022/12/12 09:56:58;;;;;;;19.30;10.13;;;;;;;1.97;73.39;100187.06;5027440;28;20263;-68
2022/12/12 09:59:33;;;;;;;19.80;10.20;;;;;;;2.04;73.35;100185.66;5020218;28;20334;-69
2022/12/12 10:02:37;;;;;;;19.87;10.37;;;;;;;2.19;73.49;100178.47;5021287;28;20504;-69
2022/12/12 10:05:16;;;;;;;22.53;10.77;;;;;;;2.28;72.84;100180.56;5026169;28;20890;-69
2022/12/12 10:07:51;;;;;;;22.57;11.53;;;;;;;2.32;72.95;100175.53;5025640;28;20253;-69
2022/12/12 10:10:28;;;;;;;19.50;10.70;;;;;;;2.48;71.47;100172.78;5022970;28;20202;-68
2022/12/12 10:12:57;;;;;;;23.13;11.43;;;;;;;2.44;71.83;100160.41;5025680;28;20200;-67
2022/12/12 10:15:45;;;;;;;32.03;14.03;;;;;;;2.50;72.31;100168.50;5025443;28;20282;-68
2022/12/12 10:18:19;;;;;;;26.67;13.23;;;;;;;2.34;72.88;100167.78;5022586;28;20218;-68
2022/12/12 10:20:50;;;;;;;27.50;12.60;;;;;;;2.38;72.43;100175.81;5026831;28;20221;-68
2022/12/12 10:23:38;;;;;;;27.20;12.77;;;;;;;2.49;72.19;100173.66;5026500;28;20266;-68
2022/12/12 10:26:10;;;;;;;31.57;14.20;;;;;;;2.41;72.42;100175.06;5022742;28;20198;-68
2022/12/12 10:28:37;;;;;;;27.57;13.27;;;;;;;2.38;72.93;100180.13;5025597;28;20202;-69
2022/12/12 10:31:32;;;;;;;27.80;14.23;;;;;;;2.41;73.56;100175.97;5025026;28;20260;-68
2022/12/12 10:34:11;;;;;;;31.37;15.60;;;;;;;2.47;73.50;100184.06;5026691;28;20220;-69
2022/12/12 10:37:02;;;;;;;33.10;15.10;;;;;;;2.41;73.71;100169.84;5025625;28;20297;-68
2022/12/12 10:40:00;;;;;;;32.10;15.30;;;;;;;2.51;73.37;100179.84;5025120;28;20652;-69
2022/12/12 10:42:58;;;;;;;32.27;14.60;;;;;;;2.48;73.60;100178.00;5025287;28;20271;-68
2022/12/12 10:46:16;;;;;;;30.37;15.47;;;;;;;2.55;72.71;100178.25;5025519;28;20204;-69
2022/12/12 10:48:45;;;;;;;30.73;14.93;;;;;;;2.55;71.08;100176.53;5031612;28;20622;-69
2022/12/12 10:51:16;;;;;;;32.67;15.30;;;;;;;2.44;71.33;100160.41;5021240;28;20741;-68
2022/12/12 10:53:43;;;;;;;33.83;14.87;;;;;;;2.46;71.71;100177.03;5021075;28;20201;-69
2022/12/12 10:56:17;;;;;;;27.20;14.30;;;;;;;2.41;70.91;100175.06;5027421;28;20202;-68
2022/12/12 10:58:52;;;;;;;30.67;13.67;;;;;;;2.34;71.83;100168.66;5028120;28;20564;-69
2022/12/12 11:01:23;;;;;;;29.93;14.27;;;;;;;2.37;72.52;100175.72;5024851;28;20219;-68
2022/12/12 11:04:13;;;;;;;28.63;14.33;;;;;;;2.39;70.67;100169.75;5024390;28;20273;-68
2022/12/12 11:06:49;;;;;;;27.23;13.97;;;;;;;2.25;71.89;100168.28;5023960;28;20195;-68
2022/12/12 11:09:23;;;;;;;26.33;13.47;;;;;;;2.27;72.16;100165.72;5018855;28;20204;-69
2022/12/12 11:12:10;;;;;;;33.37;14.57;;;;;;;2.27;71.78;100176.19;5024776;28;20219;-69
2022/12/12 11:14:39;;;;;;;32.17;14.87;;;;;;;2.29;72.08;100179.75;5021299;28;20283;-70
2022/12/12 11:17:27;;;;;;;29.83;15.20;;;;;;;2.42;71.89;100174.25;5021467;28;20304;-68
2022/12/12 11:19:57;;;;;;;31.10;15.47;;;;;;;2.45;72.10;100177.88;5025813;28;20252;-69
2022/12/12 11:22:24;;;;;;;29.20;14.80;;;;;;;2.50;71.93;100171.09;5020375;28;20357;-71
2022/12/12 11:24:52;;;;;;;30.13;14.60;;;;;;;2.37;72.06;100162.66;5022066;28;20269;-71
2022/12/12 11:27:30;;;;;;;31.70;14.97;;;;;;;2.33;72.11;100179.94;5022410;28;20216;-71
2022/12/12 11:29:59;;;;;;;37.67;16.03;;;;;;;2.37;72.63;100175.72;5024718;28;20672;-71
2022/12/12 11:32:29;;;;;;;31.47;14.93;;;;;;;2.38;71.83;100174.91;5023690;28;20304;-69
2022/12/12 11:35:02;;;;;;;37.03;16.63;;;;;;;2.34;72.53;100178.22;5020312;28;20211;-69
2022/12/12 11:37:52;;;;;;;32.73;15.77;;;;;;;2.36;72.50;100174.84;5017289;28;20191;-69
2022/12/12 11:40:23;;;;;;;32.37;16.23;;;;;;;2.41;72.85;100170.72;5022234;28;20246;-69
2022/12/12 11:42:50;;;;;;;29.70;15.13;;;;;;;2.44;72.75;100164.75;5025068;28;20574;-69
2022/12/12 11:45:16;;;;;;;30.23;15.20;;;;;;;2.38;72.56;100156.63;5026714;28;20242;-70
2022/12/12 11:47:45;;;;;;;27.73;14.60;;;;;;;2.40;72.91;100161.09;5024361;28;20642;-69
2022/12/12 11:50:24;;;;;;;25.07;12.27;;;;;;;2.38;73.10;100165.34;5025341;28;20229;-70